Terminal Aerodrome Forecast
Issued by NWS

Home | Current Version | Previous Version | Text Only | Print | Product List | Glossary Off
Versions: 1 2 3 4 5 6 7 8 9 10 11 12 13 14 15 16

010
FTUS43 KBIS 231726
TAFJMS
TAF
KJMS 231726Z 2318/2418 08017G26KT P6SM OVC008
     FM241000 07012G20KT P6SM -RASN OVC008
     FM241600 03010KT 5SM RA OVC008=

USA.gov is the U.S. government's official web portal to all federal, state and local government web resources and services.